aviador You're here:

KAWM Decoded Metar

W MEMPHIS MUNI in AR, USA
Report Time2017-11-23 02:53:00
UTC Time2017-11-23 03:47:21
Flight Rules vfr VFR
Wind050° at 03 kt
W.Decomp.*RWY 35: 1.5 kt HW 2.6 kt RCW
W.Rank050° ranks 17
Current wind is below 050° avg. (6.5)
Visibility9999 m
Phenomena:N/A
Clouds:N/A
Expected CloudBase > 1,600 ft AGL from Temp-Dew spread
CeilingNone
Temp01°C (ISA -14)
Dew Point-3°C (75% RH)
AAT-2.5°C
QNH1025 hPa
Density Alt-1,781 ft
Elevation213 ft
Report Wrong Elevation
Raw Report
KAWM 230253Z AUTO 05003KT 10SM CLR 01/M03 A3027 RMK AO2 SLP253
T00111033 55003 $=

Extra information for KAWM:More info

Metar Taf Metar & Taf Last 4 Metars F.Rules Stats Wind Profile Meteogram Temp Stats Airport Information Weather charts Add Link Nearby VenuesMetar ALERT Operation Metar Decoded Social comments

AIRNAV info for KAWM